createdAt,value
2019-05-09T00:00:26.362Z,13.84
2019-05-09T00:02:54.845Z,13.90
2019-05-09T00:05:25.469Z,13.77
2019-05-09T00:07:53.548Z,13.69
2019-05-09T00:10:38.126Z,13.61
2019-05-09T00:12:54.044Z,13.61
2019-05-09T00:15:24.189Z,13.53
2019-05-09T00:17:53.346Z,13.51
2019-05-09T00:20:29.656Z,13.55
2019-05-09T00:22:58.149Z,13.51
2019-05-09T00:25:26.633Z,13.47
2019-05-09T00:27:55.121Z,13.53
2019-05-09T00:30:43.660Z,13.47
2019-05-09T00:33:14.282Z,13.41
2019-05-09T00:35:44.235Z,13.30
2019-05-09T00:38:13.361Z,13.29
2019-05-09T00:40:55.257Z,13.16
2019-05-09T00:43:13.211Z,13.15
2019-05-09T00:45:46.040Z,13.19
2019-05-09T00:48:16.180Z,13.06
2019-05-09T00:50:44.641Z,13.13
2019-05-09T00:53:17.285Z,13.09
2019-05-09T00:55:45.755Z,13.07
2019-05-09T00:58:14.577Z,13.05
2019-05-09T01:00:43.992Z,13.12
2019-05-09T01:03:14.124Z,13.05
2019-05-09T01:05:43.624Z,13.03
2019-05-09T01:08:13.697Z,13.04
2019-05-09T01:10:43.600Z,13.09
2019-05-09T01:13:14.163Z,13.04
2019-05-09T01:15:44.040Z,13.07
2019-05-09T01:18:13.249Z,13.06
2019-05-09T01:20:43.905Z,13.05
2019-05-09T01:23:14.184Z,13.05
2019-05-09T01:25:43.590Z,13.06
2019-05-09T01:28:13.958Z,13.08
2019-05-09T01:30:43.984Z,13.08
2019-05-09T01:33:24.180Z,13.01
2019-05-09T01:35:54.074Z,13.05
2019-05-09T01:38:23.297Z,13.04
2019-05-09T01:40:53.307Z,13.07
2019-05-09T01:43:24.240Z,13.06
2019-05-09T01:45:54.076Z,13.03
2019-05-09T01:48:23.445Z,13.07
2019-05-09T01:50:53.736Z,13.11
2019-05-09T01:53:24.120Z,13.05
2019-05-09T01:55:58.593Z,13.09
2019-05-09T01:58:34.058Z,13.17
2019-05-09T02:01:04.255Z,13.20
2019-05-09T02:03:33.657Z,13.09
2019-05-09T02:06:03.545Z,13.18
2019-05-09T02:08:34.434Z,13.20
2019-05-09T02:11:03.777Z,13.15
2019-05-09T02:13:33.810Z,13.16
2019-05-09T02:16:06.937Z,13.18
2019-05-09T02:18:37.027Z,13.20
2019-05-09T02:21:05.508Z,13.17
2019-05-09T02:23:34.072Z,13.21
2019-05-09T02:26:04.036Z,13.22
2019-05-09T02:28:34.172Z,13.24
2019-05-09T02:31:05.230Z,13.25
2019-05-09T02:33:34.776Z,13.24
2019-05-09T02:36:03.192Z,13.21
2019-05-09T02:38:31.671Z,13.23
2019-05-09T02:41:00.159Z,13.23
2019-05-09T02:43:29.223Z,13.24
2019-05-09T02:46:11.517Z,13.26
2019-05-09T02:48:39.993Z,13.25
2019-05-09T02:51:09.395Z,13.21
2019-05-09T02:53:39.483Z,13.21
2019-05-09T02:56:09.149Z,13.18
2019-05-09T02:58:48.332Z,13.18
2019-05-09T03:01:18.951Z,13.14
2019-05-09T03:03:48.278Z,13.14
2019-05-09T03:06:19.654Z,13.12
2019-05-09T03:08:49.062Z,13.16
2019-05-09T03:11:18.752Z,13.11
2019-05-09T03:13:49.509Z,13.08
2019-05-09T03:16:19.041Z,13.07
2019-05-09T03:18:49.418Z,13.14
2019-05-09T03:21:19.674Z,13.11
2019-05-09T03:23:49.009Z,13.07
2019-05-09T03:26:19.599Z,13.02
2019-05-09T03:28:49.930Z,12.97
2019-05-09T03:31:20.065Z,13.01
2019-05-09T03:33:50.042Z,12.98
2019-05-09T03:36:18.735Z,12.98
2019-05-09T03:38:47.630Z,13.07
2019-05-09T03:41:17.692Z,13.01
2019-05-09T03:43:48.289Z,13.06
2019-05-09T03:46:28.047Z,12.99
2019-05-09T03:49:00.774Z,13.00
2019-05-09T03:51:29.250Z,12.99
2019-05-09T03:53:57.773Z,12.98
2019-05-09T03:56:31.499Z,12.98
2019-05-09T03:58:59.965Z,12.98
2019-05-09T04:01:28.769Z,12.97
2019-05-09T04:03:58.392Z,12.95
2019-05-09T04:06:28.232Z,12.99
2019-05-09T04:08:58.474Z,13.00
2019-05-09T04:11:27.650Z,13.04
2019-05-09T04:13:58.540Z,13.05
2019-05-09T04:16:27.678Z,12.97
2019-05-09T04:18:58.184Z,13.02
2019-05-09T04:21:28.011Z,13.09
2019-05-09T04:23:58.509Z,13.04
2019-05-09T04:26:28.548Z,13.08
2019-05-09T04:28:57.787Z,13.11
2019-05-09T04:31:28.032Z,13.08
2019-05-09T04:33:57.439Z,13.11
2019-05-09T04:36:41.168Z,13.08
2019-05-09T04:39:18.046Z,13.19
2019-05-09T04:41:42.400Z,13.08
2019-05-09T04:44:16.966Z,13.16
2019-05-09T04:46:42.765Z,13.18
2019-05-09T04:49:11.255Z,13.15
2019-05-09T04:51:39.707Z,13.18
2019-05-09T04:54:08.192Z,13.22
2019-05-09T04:56:38.351Z,13.25
2019-05-09T04:59:07.558Z,13.22
2019-05-09T05:01:38.959Z,13.24
2019-05-09T05:04:07.980Z,13.32
2019-05-09T05:06:40.260Z,13.26
2019-05-09T05:09:08.733Z,13.29
2019-05-09T05:11:38.319Z,13.28
2019-05-09T05:14:09.277Z,13.22
2019-05-09T05:16:39.161Z,13.31
2019-05-09T05:19:07.658Z,13.37
2019-05-09T05:21:37.793Z,13.34
2019-05-09T05:24:08.304Z,13.33
2019-05-09T05:26:38.031Z,13.37
2019-05-09T05:29:08.451Z,13.39
2019-05-09T05:31:38.812Z,13.38
2019-05-09T05:34:11.576Z,13.34
2019-05-09T05:36:40.046Z,13.43
2019-05-09T05:39:10.072Z,13.38
2019-05-09T05:41:38.552Z,13.44
2019-05-09T05:44:08.542Z,13.46
2019-05-09T05:46:55.391Z,13.45
2019-05-09T05:49:23.872Z,13.50
2019-05-09T05:51:52.343Z,13.53
2019-05-09T05:54:22.154Z,13.51
2019-05-09T05:56:50.776Z,13.60
2019-05-09T05:59:19.504Z,13.62
2019-05-09T06:01:48.085Z,13.62
2019-05-09T06:04:18.624Z,13.58
2019-05-09T06:06:48.085Z,13.66
2019-05-09T06:09:18.958Z,13.66
2019-05-09T06:11:48.448Z,13.63
2019-05-09T06:14:18.456Z,13.61
2019-05-09T06:16:48.555Z,13.65
2019-05-09T06:19:17.987Z,13.67
2019-05-09T06:21:48.559Z,13.71
2019-05-09T06:24:17.813Z,13.74
2019-05-09T06:26:47.901Z,13.80
2019-05-09T06:29:17.821Z,13.81
2019-05-09T06:31:48.447Z,13.83
2019-05-09T06:34:18.807Z,13.88
2019-05-09T06:36:48.885Z,14.10
2019-05-09T06:39:17.965Z,14.16
2019-05-09T06:41:48.341Z,14.08
2019-05-09T06:44:24.126Z,14.08
2019-05-09T06:47:00.204Z,13.99
2019-05-09T06:49:31.945Z,14.05
2019-05-09T06:52:00.657Z,14.10
2019-05-09T06:54:29.264Z,14.11
2019-05-09T06:56:58.604Z,14.09
2019-05-09T06:59:28.341Z,14.26
2019-05-09T07:01:58.727Z,14.22
2019-05-09T07:04:43.780Z,14.23
2019-05-09T07:07:17.630Z,14.28
2019-05-09T07:09:48.159Z,14.35
2019-05-09T07:12:18.084Z,14.26
2019-05-09T07:14:48.716Z,14.33
2019-05-09T07:17:18.359Z,14.31
2019-05-09T07:19:48.772Z,14.41
2019-05-09T07:22:18.933Z,14.48
2019-05-09T07:25:06.503Z,14.45
2019-05-09T07:27:39.187Z,14.48
2019-05-09T07:30:37.672Z,14.49
2019-05-09T07:33:23.068Z,14.38
2019-05-09T07:35:51.548Z,14.30
2019-05-09T07:38:30.382Z,14.28
2019-05-09T07:41:00.059Z,14.41
2019-05-09T07:43:28.787Z,14.26
2019-05-09T07:46:08.850Z,14.30
2019-05-09T07:48:38.685Z,14.31
2019-05-09T07:51:08.030Z,14.30
2019-05-09T07:53:38.065Z,14.17
2019-05-09T07:56:07.990Z,14.30
2019-05-09T07:58:37.728Z,14.36
2019-05-09T08:01:08.558Z,14.30
2019-05-09T08:03:38.424Z,14.29
2019-05-09T08:06:08.757Z,14.44
2019-05-09T08:08:38.474Z,14.46
2019-05-09T08:11:08.829Z,14.49
2019-05-09T08:13:39.236Z,14.60
2019-05-09T08:16:12.395Z,14.62
2019-05-09T08:18:38.012Z,14.61
2019-05-09T08:21:08.435Z,14.63
2019-05-09T08:23:37.984Z,14.69
2019-05-09T08:26:08.833Z,14.76
2019-05-09T08:28:38.935Z,14.91
2019-05-09T08:31:08.306Z,15.04
2019-05-09T08:33:38.046Z,15.08
2019-05-09T08:36:08.755Z,15.27
2019-05-09T08:38:39.018Z,15.06
2019-05-09T08:41:09.313Z,14.98
2019-05-09T08:43:39.360Z,15.03
2019-05-09T08:46:08.262Z,15.26
2019-05-09T08:48:37.826Z,15.34
2019-05-09T08:51:08.965Z,15.54
2019-05-09T08:53:38.158Z,15.68
2019-05-09T08:56:08.976Z,15.73
2019-05-09T08:58:38.219Z,15.94
2019-05-09T09:01:09.836Z,15.90
2019-05-09T09:03:37.771Z,16.13
2019-05-09T09:06:08.246Z,16.22
2019-05-09T09:08:37.976Z,16.21
2019-05-09T09:11:08.558Z,16.28
2019-05-09T09:13:37.840Z,16.09
2019-05-09T09:16:15.697Z,16.17
2019-05-09T09:18:38.772Z,16.61
2019-05-09T09:21:08.088Z,16.59
2019-05-09T09:23:44.152Z,16.48
2019-05-09T09:26:08.201Z,16.36
2019-05-09T09:28:37.977Z,16.38
2019-05-09T09:31:08.221Z,16.47
2019-05-09T09:33:37.646Z,16.66
2019-05-09T09:36:08.563Z,17.14
2019-05-09T09:38:37.566Z,18.22
2019-05-09T09:41:07.841Z,18.76
2019-05-09T09:43:38.388Z,18.57
2019-05-09T09:46:14.057Z,18.44
2019-05-09T09:48:38.925Z,18.28
2019-05-09T09:51:08.108Z,17.99
2019-05-09T09:53:38.438Z,17.97
2019-05-09T09:56:08.770Z,17.90
2019-05-09T09:58:38.026Z,17.84
2019-05-09T10:01:21.342Z,17.59
2019-05-09T10:03:51.584Z,17.28
2019-05-09T10:06:20.047Z,17.42
2019-05-09T10:08:49.100Z,17.46
2019-05-09T10:11:18.047Z,17.21
2019-05-09T10:13:48.089Z,17.15
2019-05-09T10:16:31.927Z,17.10
2019-05-09T10:19:02.869Z,16.97
2019-05-09T10:21:32.996Z,16.99
2019-05-09T10:24:01.478Z,16.78
2019-05-09T10:26:29.971Z,16.68
2019-05-09T10:28:58.536Z,16.66
2019-05-09T10:31:28.267Z,16.78
2019-05-09T10:33:58.054Z,16.94
2019-05-09T10:36:27.838Z,16.96
2019-05-09T10:38:58.504Z,17.26
2019-05-09T10:41:26.687Z,17.71
2019-05-09T10:43:57.872Z,17.75
2019-05-09T10:46:46.336Z,17.81
2019-05-09T10:49:00.009Z,17.91
2019-05-09T10:51:28.566Z,17.74
2019-05-09T10:53:58.804Z,17.57
2019-05-09T10:56:28.035Z,17.61
2019-05-09T10:58:58.424Z,17.48
2019-05-09T11:01:29.491Z,17.45
2019-05-09T11:03:58.967Z,17.01
2019-05-09T11:06:28.772Z,16.80
2019-05-09T11:08:58.560Z,16.46
2019-05-09T11:11:28.463Z,16.34
2019-05-09T11:13:58.785Z,16.32
2019-05-09T11:16:41.294Z,16.23
2019-05-09T11:18:58.490Z,16.09
2019-05-09T11:21:28.538Z,15.89
2019-05-09T11:23:58.281Z,15.87
2019-05-09T11:26:28.415Z,15.91
2019-05-09T11:28:58.783Z,15.82
2019-05-09T11:31:29.518Z,15.53
2019-05-09T11:33:58.159Z,15.65
2019-05-09T11:36:26.785Z,15.53
2019-05-09T11:38:55.257Z,15.50
2019-05-09T11:41:23.769Z,15.71
2019-05-09T11:43:52.223Z,15.78
2019-05-09T11:46:20.729Z,15.97
2019-05-09T11:48:49.229Z,16.07
2019-05-09T11:51:20.582Z,16.41
2019-05-09T11:53:48.768Z,16.57
2019-05-09T11:56:18.137Z,16.43
2019-05-09T11:58:48.179Z,16.46
2019-05-09T12:01:19.095Z,16.56
2019-05-09T12:03:49.917Z,16.47
2019-05-09T12:06:20.206Z,16.78
2019-05-09T12:08:48.438Z,16.72
2019-05-09T12:11:18.151Z,16.82
2019-05-09T12:13:48.496Z,16.86
2019-05-09T12:16:18.377Z,17.03
2019-05-09T12:18:49.060Z,17.06
2019-05-09T12:21:19.170Z,16.92
2019-05-09T12:23:48.775Z,17.16
2019-05-09T12:26:18.050Z,17.29
2019-05-09T12:28:48.403Z,16.96
2019-05-09T12:31:18.087Z,16.96
2019-05-09T12:33:48.280Z,17.10
2019-05-09T12:36:19.178Z,17.22
2019-05-09T12:38:49.674Z,17.20
2019-05-09T12:41:18.917Z,17.31
2019-05-09T12:43:47.816Z,17.22
2019-05-09T12:46:16.291Z,17.33
2019-05-09T12:48:44.759Z,17.22
2019-05-09T12:51:13.335Z,17.23
2019-05-09T12:53:41.812Z,17.28
2019-05-09T12:56:11.088Z,17.24
2019-05-09T12:58:39.569Z,17.32
2019-05-09T13:01:08.039Z,17.18
2019-05-09T13:03:38.176Z,17.37
2019-05-09T13:06:08.142Z,17.39
2019-05-09T13:08:38.472Z,17.34
2019-05-09T13:11:08.056Z,17.38
2019-05-09T13:13:40.890Z,17.40
2019-05-09T13:16:14.131Z,17.32
2019-05-09T13:19:02.475Z,17.36
2019-05-09T13:21:32.897Z,17.26
2019-05-09T13:23:59.988Z,17.27
2019-05-09T13:26:28.970Z,17.29
2019-05-09T13:28:58.843Z,17.37
2019-05-09T13:31:29.403Z,17.40
2019-05-09T13:33:58.669Z,17.48
2019-05-09T13:36:28.450Z,17.55
2019-05-09T13:39:04.216Z,17.56
2019-05-09T13:41:27.486Z,17.57
2019-05-09T13:43:59.375Z,17.56
2019-05-09T13:46:28.255Z,17.63
2019-05-09T13:49:08.261Z,17.59
2019-05-09T13:51:26.714Z,17.61
2019-05-09T13:53:55.293Z,17.80
2019-05-09T13:56:23.952Z,17.81
2019-05-09T13:58:52.450Z,17.81
2019-05-09T14:01:20.945Z,17.66
2019-05-09T14:03:49.500Z,17.75
2019-05-09T14:06:17.989Z,17.65
2019-05-09T14:08:48.962Z,17.69
2019-05-09T14:11:19.064Z,17.48
2019-05-09T14:13:48.830Z,17.60
2019-05-09T14:16:22.167Z,17.56
2019-05-09T14:18:48.609Z,17.50
2019-05-09T14:21:21.555Z,17.56
2019-05-09T14:24:01.047Z,17.55
2019-05-09T14:26:18.186Z,17.52
2019-05-09T14:28:48.898Z,17.62
2019-05-09T14:31:18.580Z,17.68
2019-05-09T14:33:47.778Z,17.69
2019-05-09T14:36:16.504Z,17.83
2019-05-09T14:38:45.061Z,17.82
2019-05-09T14:41:13.530Z,17.87
2019-05-09T14:43:42.064Z,17.83
2019-05-09T14:46:10.480Z,17.70
2019-05-09T14:48:38.973Z,17.70
2019-05-09T14:51:07.835Z,17.75
2019-05-09T14:53:38.918Z,17.84
2019-05-09T14:56:08.746Z,17.92
2019-05-09T14:58:38.837Z,18.03
2019-05-09T15:01:08.589Z,17.90
2019-05-09T15:03:38.833Z,17.96
2019-05-09T15:06:07.703Z,17.94
2019-05-09T15:08:38.164Z,17.93
2019-05-09T15:11:09.848Z,17.96
2019-05-09T15:13:36.655Z,17.87
2019-05-09T15:16:05.131Z,17.86
2019-05-09T15:18:33.607Z,17.85
2019-05-09T15:21:02.102Z,17.84
2019-05-09T15:23:30.603Z,17.93
2019-05-09T15:25:59.096Z,17.95
2019-05-09T15:28:29.089Z,17.96
2019-05-09T15:30:59.330Z,17.89
2019-05-09T15:33:28.096Z,17.85
2019-05-09T15:35:58.884Z,17.83
2019-05-09T15:38:29.039Z,17.78
2019-05-09T15:40:57.459Z,17.80
2019-05-09T15:43:26.679Z,17.76
2019-05-09T15:46:02.966Z,17.75
2019-05-09T15:48:31.426Z,17.83
2019-05-09T15:50:59.907Z,17.82
2019-05-09T15:53:28.375Z,17.87
2019-05-09T15:55:58.763Z,17.89
2019-05-09T15:58:28.762Z,17.91
2019-05-09T16:00:58.983Z,17.96
2019-05-09T16:03:27.986Z,18.01
2019-05-09T16:05:58.430Z,17.95
2019-05-09T16:08:28.783Z,17.93
2019-05-09T16:10:58.103Z,17.93
2019-05-09T16:13:28.522Z,17.93
2019-05-09T16:15:57.696Z,17.97
2019-05-09T16:18:28.649Z,18.02
2019-05-09T16:20:58.004Z,18.07
2019-05-09T16:23:28.968Z,18.03
2019-05-09T16:25:58.574Z,18.02
2019-05-09T16:28:27.194Z,18.05
2019-05-09T16:30:55.683Z,18.02
2019-05-09T16:33:24.142Z,17.93
2019-05-09T16:35:53.200Z,17.93
2019-05-09T16:38:21.762Z,17.95
2019-05-09T16:40:50.267Z,17.93
2019-05-09T16:43:18.734Z,17.91
2019-05-09T16:45:47.825Z,17.90
2019-05-09T16:48:17.883Z,17.87
2019-05-09T16:50:57.658Z,17.91
2019-05-09T16:53:18.555Z,17.89
2019-05-09T16:55:47.281Z,17.87
2019-05-09T16:58:18.568Z,17.91
2019-05-09T17:00:54.204Z,17.92
2019-05-09T17:03:22.681Z,17.93
2019-05-09T17:05:51.170Z,17.96
2019-05-09T17:08:19.651Z,17.94
2019-05-09T17:10:48.814Z,17.95
2019-05-09T17:13:19.345Z,17.97
2019-05-09T17:15:48.218Z,17.95
2019-05-09T17:18:18.953Z,17.92
2019-05-09T17:21:17.815Z,17.87
2019-05-09T17:23:35.081Z,17.82
2019-05-09T17:26:03.631Z,17.80
2019-05-09T17:28:32.097Z,17.79
2019-05-09T17:31:00.689Z,17.77
2019-05-09T17:33:29.149Z,17.72
2019-05-09T17:35:57.938Z,17.66
2019-05-09T17:38:27.809Z,17.64
2019-05-09T17:40:57.727Z,17.63
2019-05-09T17:43:27.807Z,17.62
2019-05-09T17:45:58.398Z,17.60
2019-05-09T17:48:28.543Z,17.41
2019-05-09T17:50:58.001Z,17.45
2019-05-09T17:53:29.283Z,17.41
2019-05-09T17:55:58.675Z,17.40
2019-05-09T17:58:32.488Z,17.42
2019-05-09T18:00:57.659Z,17.40
2019-05-09T18:03:28.886Z,17.38
2019-05-09T18:05:57.696Z,17.32
2019-05-09T18:08:28.321Z,17.27
2019-05-09T18:10:58.240Z,17.24
2019-05-09T18:13:29.770Z,17.21
2019-05-09T18:15:57.218Z,17.10
2019-05-09T18:18:28.155Z,17.09
2019-05-09T18:20:58.052Z,17.12
2019-05-09T18:23:28.330Z,17.12
2019-05-09T18:25:58.522Z,17.10
2019-05-09T18:28:29.114Z,17.08
2019-05-09T18:30:58.502Z,16.97
2019-05-09T18:33:34.832Z,16.98
2019-05-09T18:36:03.311Z,16.88
2019-05-09T18:38:33.914Z,16.90
2019-05-09T18:41:02.762Z,16.86
2019-05-09T18:43:31.220Z,16.76
2019-05-09T18:45:59.700Z,16.70
2019-05-09T18:48:28.191Z,16.64
2019-05-09T18:50:56.655Z,16.63
2019-05-09T18:53:25.133Z,16.59
2019-05-09T18:55:53.590Z,16.57
2019-05-09T18:58:22.114Z,16.51
2019-05-09T19:00:51.160Z,16.56
2019-05-09T19:03:19.643Z,16.44
2019-05-09T19:05:48.116Z,16.41
2019-05-09T19:08:16.597Z,16.42
2019-05-09T19:10:45.077Z,16.41
2019-05-09T19:13:13.591Z,16.39
2019-05-09T19:15:43.713Z,16.35
2019-05-09T19:18:13.841Z,16.35
2019-05-09T19:20:59.121Z,16.28
2019-05-09T19:23:27.737Z,16.29
2019-05-09T19:25:57.826Z,16.27
2019-05-09T19:28:26.305Z,16.27
2019-05-09T19:30:54.783Z,16.29
2019-05-09T19:33:23.269Z,16.24
2019-05-09T19:35:51.746Z,16.18
2019-05-09T19:38:20.271Z,16.14
2019-05-09T19:40:48.707Z,16.14
2019-05-09T19:43:17.179Z,16.14
2019-05-09T19:45:45.667Z,16.12
2019-05-09T19:48:14.215Z,15.98
2019-05-09T19:50:42.709Z,16.02
2019-05-09T19:53:11.181Z,16.01
2019-05-09T19:55:39.815Z,15.97
2019-05-09T19:58:08.346Z,16.00
2019-05-09T20:00:36.870Z,15.92
2019-05-09T20:03:05.349Z,15.89
2019-05-09T20:05:33.839Z,15.90
2019-05-09T20:08:02.306Z,15.88
2019-05-09T20:10:48.482Z,15.81
2019-05-09T20:13:18.617Z,15.78
2019-05-09T20:15:47.106Z,15.69
2019-05-09T20:18:19.986Z,15.59
2019-05-09T20:20:49.543Z,15.63
2019-05-09T20:23:18.020Z,15.57
2019-05-09T20:25:46.507Z,15.56
2019-05-09T20:28:15.113Z,15.54
2019-05-09T20:30:43.647Z,15.48
2019-05-09T20:33:12.150Z,15.42
2019-05-09T20:35:40.815Z,15.42
2019-05-09T20:38:09.426Z,15.37
2019-05-09T20:40:38.650Z,15.40
2019-05-09T20:43:07.308Z,15.32
2019-05-09T20:45:35.973Z,15.26
2019-05-09T20:48:05.364Z,15.28
2019-05-09T20:50:34.412Z,15.26
2019-05-09T20:53:09.481Z,15.24
2019-05-09T20:55:35.423Z,15.13
2019-05-09T20:58:05.328Z,15.06
2019-05-09T21:00:34.026Z,15.01
2019-05-09T21:03:02.743Z,14.96
2019-05-09T21:05:31.429Z,14.95
2019-05-09T21:08:00.076Z,14.98
2019-05-09T21:10:28.755Z,14.94
2019-05-09T21:12:57.418Z,14.96
2019-05-09T21:15:26.107Z,14.93
2019-05-09T21:17:54.757Z,14.92
2019-05-09T21:20:23.416Z,14.91
2019-05-09T21:22:52.059Z,14.94
2019-05-09T21:25:20.774Z,14.95
2019-05-09T21:27:49.436Z,14.98
2019-05-09T21:30:18.529Z,14.95
2019-05-09T21:32:47.202Z,14.97
2019-05-09T21:35:15.999Z,14.94
2019-05-09T21:37:44.500Z,14.86
2019-05-09T21:40:13.414Z,14.89
2019-05-09T21:42:41.903Z,14.84
2019-05-09T21:45:10.433Z,14.71
2019-05-09T21:47:38.946Z,14.72
2019-05-09T21:50:07.753Z,14.79
2019-05-09T21:52:36.316Z,14.69
2019-05-09T21:55:05.418Z,14.73
2019-05-09T21:57:33.904Z,14.74
2019-05-09T22:00:02.364Z,14.61
2019-05-09T22:02:30.913Z,14.62
2019-05-09T22:04:59.390Z,14.66
2019-05-09T22:07:27.909Z,14.61
2019-05-09T22:09:56.388Z,14.59
2019-05-09T22:12:24.889Z,14.62
2019-05-09T22:14:53.825Z,14.54
2019-05-09T22:17:23.947Z,14.50
2019-05-09T22:19:52.396Z,14.46
2019-05-09T22:22:20.882Z,14.35
2019-05-09T22:24:49.343Z,14.36
2019-05-09T22:27:17.837Z,14.31
2019-05-09T22:29:46.306Z,14.27
2019-05-09T22:32:14.804Z,14.22
2019-05-09T22:34:43.284Z,14.23
2019-05-09T22:37:11.768Z,14.17
2019-05-09T22:39:40.232Z,13.99
2019-05-09T22:42:08.732Z,14.03
2019-05-09T22:44:37.200Z,13.98
2019-05-09T22:47:05.736Z,13.92
2019-05-09T22:49:34.211Z,13.87
2019-05-09T22:52:02.711Z,13.88
2019-05-09T22:54:31.175Z,13.89
2019-05-09T22:56:59.676Z,13.83
2019-05-09T22:59:28.149Z,13.78
2019-05-09T23:01:56.636Z,13.73
2019-05-09T23:04:25.096Z,13.79
2019-05-09T23:06:53.686Z,13.77
2019-05-09T23:09:22.321Z,13.78
2019-05-09T23:11:50.774Z,13.84
2019-05-09T23:14:19.257Z,13.75
2019-05-09T23:16:50.435Z,13.79
2019-05-09T23:19:17.957Z,13.73
2019-05-09T23:21:46.419Z,13.74
2019-05-09T23:24:28.023Z,13.77
2019-05-09T23:26:46.755Z,13.69
2019-05-09T23:29:15.241Z,13.74
2019-05-09T23:32:00.086Z,13.71
2019-05-09T23:34:28.561Z,13.70
2019-05-09T23:36:57.034Z,13.66
2019-05-09T23:39:27.311Z,13.58
2019-05-09T23:41:55.815Z,13.55
2019-05-09T23:44:24.286Z,13.61
2019-05-09T23:46:52.758Z,13.70
2019-05-09T23:49:21.253Z,13.70
2019-05-09T23:51:50.061Z,13.67
2019-05-09T23:54:46.395Z,13.64
2019-05-09T23:57:29.300Z,13.66
